Time,TemperatureF,DewpointF,PressureIn,WindDirection,WindDirectionDegrees,WindSpeedMPH,WindSpeedGustMPH,Humidity,HourlyPrecipIn,Conditions,Clouds,dailyrainin,SoftwareType,DateUTC
2013-03-31 00:00:00,50.2,32.0,30.78,SSW,198,8.0,9.0,16,0.00,PR,BKN,0.00,Misterhouse,2013-03-31 07:00:00,
2013-03-31 00:05:00,50.0,32.0,30.78,SW,231,8.0,10.0,16,0.00,PR,BKN,0.00,Misterhouse,2013-03-31 07:05:00,
2013-03-31 00:10:00,49.8,32.0,30.78,WSW,258,8.0,9.0,16,0.00,PR,BKN,0.00,Misterhouse,2013-03-31 07:10:00,
2013-03-31 00:15:00,49.6,32.0,30.78,SSW,211,10.0,13.0,16,0.00,PR,BKN,0.00,Misterhouse,2013-03-31 07:15:00,
2013-03-31 00:25:00,49.5,32.0,30.81,WSW,247,10.0,10.0,19,0.00,PR,BKN,0.00,Misterhouse,2013-03-31 07:25:00,
2013-03-31 00:35:00,49.3,32.0,30.81,West,275,9.0,11.0,19,0.00,PR,BKN,0.00,Misterhouse,2013-03-31 07:35:00,
2013-03-31 00:40:00,49.1,32.0,30.81,WSW,258,11.0,11.0,21,0.00,PR,BKN,0.00,Misterhouse,2013-03-31 07:40:00,
2013-03-31 00:45:00,49.1,32.0,30.81,SW,219,7.0,7.0,21,0.00,PR,BKN,0.00,Misterhouse,2013-03-31 07:45:00,
2013-03-31 00:55:00,49.3,32.0,30.81,SW,232,6.0,6.0,21,0.00,PR,BKN,0.00,Misterhouse,2013-03-31 07:55:00,
2013-03-31 01:00:00,49.3,32.0,30.81,SW,214,8.0,8.0,21,0.00,PR,BKN,0.00,Misterhouse,2013-03-31 08:00:00,
2013-03-31 01:10:00,49.5,32.0,30.81,WSW,240,4.0,5.0,26,0.00,PR,BKN,0.00,Misterhouse,2013-03-31 08:10:00,
2013-03-31 01:15:00,49.8,32.0,30.81,South,188,6.0,6.0,27,0.00,PR,BKN,0.00,Misterhouse,2013-03-31 08:15:00,
2013-03-31 01:20:00,49.8,32.0,30.81,WSW,239,8.0,8.0,28,0.00,PR,BKN,0.00,Misterhouse,2013-03-31 08:20:00,
2013-03-31 01:25:00,49.8,32.0,30.78,West,270,8.0,8.0,29,0.00,PR,BKN,0.00,Misterhouse,2013-03-31 08:25:00,
2013-03-31 01:30:00,50.2,32.0,30.78,WSW,248,7.0,8.0,32,0.00,PR,BKN,0.00,Misterhouse,2013-03-31 08:30:00,
2013-03-31 01:35:00,50.5,32.0,30.78,South,189,6.0,8.0,36,0.00,PR,BKN,0.00,Misterhouse,2013-03-31 08:35:00,
2013-03-31 01:40:00,50.9,32.0,30.78,SW,223,6.0,8.0,37,0.00,PR,BKN,0.00,Misterhouse,2013-03-31 08:40:00,
2013-03-31 01:50:00,51.6,32.0,30.78,SSW,196,7.0,7.0,44,0.00,PR,BKN,0.00,Misterhouse,2013-03-31 08:50:00,
2013-03-31 01:55:00,51.6,32.0,30.78,SW,220,5.0,5.0,45,0.00,PR,BKN,0.00,Misterhouse,2013-03-31 08:55:00,
2013-03-31 02:00:00,51.6,32.0,30.78,SW,214,5.0,6.0,46,0.00,PR,BKN,0.00,Misterhouse,2013-03-31 09:00:00,
2013-03-31 02:10:00,52.3,33.8,30.78,SSW,209,10.0,10.0,51,0.00,PR,BKN,0.00,Misterhouse,2013-03-31 09:10:00,
2013-03-31 02:15:00,52.2,33.8,30.78,South,184,8.0,13.0,49,0.00,PR,BKN,0.00,Misterhouse,2013-03-31 09:15:00,
2013-03-31 02:20:00,52.0,33.8,30.78,WSW,243,5.0,6.0,49,0.00,PR,BKN,0.00,Misterhouse,2013-03-31 09:20:00,
2013-03-31 02:25:00,52.5,35.6,30.78,West,266,8.0,11.0,52,0.00,PR,BKN,0.00,Misterhouse,2013-03-31 09:25:00,
2013-03-31 02:30:00,52.3,35.6,30.78,WSW,256,9.0,9.0,52,0.00,PR,BKN,0.00,Misterhouse,2013-03-31 09:30:00,
2013-03-31 02:35:00,52.7,37.4,30.78,West,270,7.0,11.0,55,0.00,PR,BKN,0.00,Misterhouse,2013-03-31 09:35:00,
2013-03-31 02:40:00,52.9,39.2,30.78,WSW,247,10.0,11.0,58,0.00,PR,BKN,0.00,Misterhouse,2013-03-31 09:40:00,
2013-03-31 02:45:00,52.7,39.2,30.78,West,265,9.0,9.0,59,0.00,PR,BKN,0.00,Misterhouse,2013-03-31 09:45:00,
2013-03-31 02:50:00,53.2,41.0,30.78,SSW,212,6.0,6.0,64,0.00,PR,BKN,0.00,Misterhouse,2013-03-31 09:50:00,
2013-03-31 02:55:00,53.4,42.8,30.78,West,261,9.0,9.0,65,0.00,PR,BKN,0.00,Misterhouse,2013-03-31 09:55:00,
2013-03-31 03:00:00,53.2,42.8,30.78,WSW,241,9.0,9.0,65,0.00,PR,BKN,0.00,Misterhouse,2013-03-31 10:00:00,
2013-03-31 03:05:00,53.1,41.0,30.78,West,262,11.0,11.0,63,0.00,PR,BKN,0.00,Misterhouse,2013-03-31 10:05:00,
2013-03-31 03:10:00,52.9,41.0,30.78,SSW,192,7.0,8.0,63,0.00,PR,BKN,0.00,Misterhouse,2013-03-31 10:10:00,
2013-03-31 03:15:00,52.9,41.0,30.78,South,186,8.0,9.0,63,0.00,PR,BKN,0.00,Misterhouse,2013-03-31 10:15:00,
2013-03-31 03:20:00,52.5,39.2,30.78,SW,220,6.0,10.0,62,0.00,PR,BKN,0.00,Misterhouse,2013-03-31 10:20:00,
2013-03-31 03:25:00,53.1,41.0,30.78,SSW,207,7.0,7.0,63,0.00,PR,BKN,0.00,Misterhouse,2013-03-31 10:25:00,
2013-03-31 03:30:00,53.2,42.8,30.78,South,187,6.0,8.0,65,0.00,PR,BKN,0.00,Misterhouse,2013-03-31 10:30:00,
2013-03-31 03:40:00,53.4,42.8,30.78,South,176,7.0,7.0,65,0.00,PR,BKN,0.00,Misterhouse,2013-03-31 10:40:00,
2013-03-31 03:45:00,53.8,42.8,30.78,SSW,207,8.0,8.0,67,0.00,PR,BKN,0.00,Misterhouse,2013-03-31 10:45:00,
2013-03-31 03:50:00,53.8,42.8,30.78,SW,217,6.0,6.0,66,0.00,PR,BKN,0.00,Misterhouse,2013-03-31 10:50:00,
2013-03-31 03:55:00,54.0,42.8,30.78,South,179,7.0,7.0,68,0.00,PR,BKN,0.00,Misterhouse,2013-03-31 10:55:00,
2013-03-31 04:00:00,54.0,42.8,30.78,SSW,203,7.0,7.0,68,0.00,PR,BKN,0.00,Misterhouse,2013-03-31 11:00:00,
2013-03-31 04:10:00,54.5,46.4,30.78,WSW,249,6.0,6.0,70,0.00,PR,BKN,0.00,Misterhouse,2013-03-31 11:10:00,
2013-03-31 04:15:00,54.5,46.4,30.78,SSW,206,6.0,6.0,71,0.00,PR,BKN,0.00,Misterhouse,2013-03-31 11:15:00,
2013-03-31 04:20:00,54.1,44.6,30.78,South,189,5.0,5.0,69,0.00,PR,BKN,0.00,Misterhouse,2013-03-31 11:20:00,
2013-03-31 04:30:00,53.2,44.6,30.78,West,263,4.0,5.0,69,0.00,PR,BKN,0.00,Misterhouse,2013-03-31 11:30:00,
2013-03-31 04:35:00,53.6,44.6,30.78,South,173,4.0,6.0,71,0.00,PR,BKN,0.00,Misterhouse,2013-03-31 11:35:00,
2013-03-31 04:40:00,54.5,46.4,30.78,SSW,211,4.0,4.0,73,0.00,PR,BKN,0.00,Misterhouse,2013-03-31 11:40:00,
2013-03-31 04:45:00,54.9,46.4,30.78,WSW,243,4.0,4.0,73,0.00,PR,BKN,0.00,Misterhouse,2013-03-31 11:45:00,
2013-03-31 04:50:00,55.0,48.2,30.78,SW,219,3.0,3.0,74,0.00,PR,BKN,0.00,Misterhouse,2013-03-31 11:50:00,
2013-03-31 04:55:00,55.4,48.2,30.78,WSW,258,4.0,4.0,75,0.00,PR,BKN,0.00,Misterhouse,2013-03-31 11:55:00,
2013-03-31 05:00:00,55.8,48.2,30.78,WSW,237,8.0,8.0,76,0.00,PR,BKN,0.00,Misterhouse,2013-03-31 12:00:00,
2013-03-31 05:05:00,55.9,48.2,30.78,WSW,256,5.0,6.0,76,0.00,PR,BKN,0.00,Misterhouse,2013-03-31 12:05:00,
2013-03-31 05:10:00,56.1,48.2,30.75,West,262,5.0,6.0,77,0.00,PR,BKN,0.00,Misterhouse,2013-03-31 12:10:00,
2013-03-31 05:15:00,56.5,50.0,30.75,SW,223,4.0,4.0,79,0.00,PR,BKN,0.00,Misterhouse,2013-03-31 12:15:00,
2013-03-31 05:20:00,56.5,51.8,30.75,SSE,166,2.0,4.0,80,0.00,PR,BKN,0.00,Misterhouse,2013-03-31 12:20:00,
2013-03-31 05:25:00,56.7,51.8,30.78,WSW,237,4.0,4.0,81,0.00,PR,BKN,0.00,Misterhouse,2013-03-31 12:25:00,
2013-03-31 05:30:00,57.0,51.8,30.78,SSW,209,4.0,5.0,82,0.00,PR,BKN,0.00,Misterhouse,2013-03-31 12:30:00,
2013-03-31 05:35:00,57.4,51.8,30.78,WSW,250,4.0,4.0,82,0.00,PR,BKN,0.00,Misterhouse,2013-03-31 12:35:00,
2013-03-31 05:45:00,58.1,55.4,30.78,SSW,199,5.0,6.0,85,0.00,PR,BKN,0.00,Misterhouse,2013-03-31 12:45:00,
2013-03-31 05:55:00,59.7,55.4,30.78,West,262,9.0,9.0,87,0.00,PR,BKN,0.00,Misterhouse,2013-03-31 12:55:00,
2013-03-31 06:00:00,66.9,62.6,30.78,SSW,203,5.0,5.0,86,0.00,PR,BKN,0.00,Misterhouse,2013-03-31 13:00:00,
2013-03-31 06:10:00,67.5,64.4,30.78,SSE,166,7.0,7.0,88,0.00,PR,BKN,0.00,Misterhouse,2013-03-31 13:10:00,
2013-03-31 06:15:00,67.6,64.4,30.78,South,176,4.0,5.0,89,0.00,PR,BKN,0.00,Misterhouse,2013-03-31 13:15:00,
2013-03-31 06:20:00,68.5,64.4,30.78,SSW,202,4.0,6.0,91,0.00,PR,BKN,0.00,Misterhouse,2013-03-31 13:20:00,
2013-03-31 06:25:00,69.3,68.0,30.78,SW,235,4.0,6.0,92,0.00,PR,BKN,0.00,Misterhouse,2013-03-31 13:25:00,
2013-03-31 06:30:00,70.5,68.0,30.78,SSW,204,5.0,5.0,93,0.00,PR,BKN,0.00,Misterhouse,2013-03-31 13:30:00,
2013-03-31 06:35:00,70.3,68.0,30.78,SSE,164,8.0,9.0,94,0.00,PR,BKN,0.00,Misterhouse,2013-03-31 13:35:00,
2013-03-31 06:45:00,70.3,68.0,30.78,WSW,239,5.0,5.0,94,0.00,PR,BKN,0.00,Misterhouse,2013-03-31 13:45:00,
2013-03-31 06:50:00,70.3,68.0,30.78,SSW,203,6.0,8.0,94,0.00,PR,BKN,0.00,Misterhouse,2013-03-31 13:50:00,
2013-03-31 06:55:00,70.5,68.0,30.78,WSW,244,6.0,6.0,95,0.00,PR,BKN,0.00,Misterhouse,2013-03-31 13:55:00,
2013-03-31 07:00:00,70.5,68.0,30.78,South,190,9.0,11.0,95,0.00,PR,BKN,0.00,Misterhouse,2013-03-31 14:00:00,
2013-03-31 07:10:00,71.1,69.8,30.78,South,184,7.0,8.0,96,0.00,PR,BKN,0.00,Misterhouse,2013-03-31 14:10:00,
2013-03-31 07:15:00,71.1,69.8,30.78,SW,234,3.0,0.0,96,0.00,PR,BKN,0.00,Misterhouse,2013-03-31 14:15:00,
2013-03-31 07:20:00,71.2,71.6,30.78,SSW,204,8.0,8.0,97,0.00,PR,BKN,0.00,Misterhouse,2013-03-31 14:20:00,
2013-03-31 07:25:00,71.2,69.8,30.81,SSW,209,4.0,5.0,96,0.00,PR,BKN,0.00,Misterhouse,2013-03-31 14:25:00,
2013-03-31 07:35:00,70.9,69.8,30.81,South,175,4.0,6.0,95,0.00,PR,BKN,0.00,Misterhouse,2013-03-31 14:35:00,
2013-03-31 07:40:00,70.7,69.8,30.81,SSW,200,7.0,7.0,94,0.00,PR,BKN,0.00,Misterhouse,2013-03-31 14:40:00,
2013-03-31 07:45:00,70.7,69.8,30.81,South,170,5.0,6.0,94,0.00,PR,BKN,0.00,Misterhouse,2013-03-31 14:45:00,
2013-03-31 07:50:00,70.9,69.8,30.81,SSW,205,5.0,5.0,94,0.00,PR,BKN,0.00,Misterhouse,2013-03-31 14:50:00,
2013-03-31 07:55:00,71.1,69.8,30.81,SW,231,3.0,0.0,95,0.00,PR,BKN,0.00,Misterhouse,2013-03-31 14:55:00,
2013-03-31 08:00:00,71.2,69.8,30.81,SSW,193,4.0,5.0,95,0.00,PR,BKN,0.00,Misterhouse,2013-03-31 15:00:00,
2013-03-31 08:10:00,71.6,69.8,30.81,SSW,202,4.0,4.0,96,0.00,PR,BKN,0.00,Misterhouse,2013-03-31 15:10:00,
2013-03-31 08:15:00,71.6,69.8,30.81,SSE,156,4.0,5.0,96,0.00,PR,BKN,0.00,Misterhouse,2013-03-31 15:15:00,
2013-03-31 08:20:00,71.2,69.8,30.81,WSW,253,7.0,7.0,96,0.00,PR,BKN,0.00,Misterhouse,2013-03-31 15:20:00,
2013-03-31 08:25:00,70.9,69.8,30.81,South,191,5.0,6.0,95,0.00,PR,BKN,0.00,Misterhouse,2013-03-31 15:25:00,
2013-03-31 08:30:00,70.7,69.8,30.81,South,189,8.0,8.0,94,0.00,PR,BKN,0.00,Misterhouse,2013-03-31 15:30:00,
2013-03-31 08:40:00,69.6,66.2,30.81,South,187,7.0,10.0,90,0.00,PR,BKN,0.00,Misterhouse,2013-03-31 15:40:00,
2013-03-31 08:45:00,68.7,62.6,30.81,SSW,211,8.0,8.0,85,0.00,PR,BKN,0.00,Misterhouse,2013-03-31 15:45:00,
2013-03-31 08:50:00,68.0,62.6,30.81,South,183,6.0,9.0,81,0.00,PR,BKN,0.00,Misterhouse,2013-03-31 15:50:00,
2013-03-31 08:55:00,66.2,59.0,30.81,SE,139,6.0,6.0,77,0.00,PR,BKN,0.00,Misterhouse,2013-03-31 15:55:00,
2013-03-31 09:00:00,64.9,55.4,30.81,SSE,163,6.0,6.0,72,0.00,PR,BKN,0.00,Misterhouse,2013-03-31 16:00:00,
2013-03-31 09:10:00,63.1,51.8,30.81,West,272,5.0,5.0,68,0.00,PR,BKN,0.00,Misterhouse,2013-03-31 16:10:00,
2013-03-31 09:15:00,62.1,50.0,30.81,SSW,200,8.0,8.0,63,0.00,PR,BKN,0.00,Misterhouse,2013-03-31 16:15:00,
2013-03-31 09:20:00,61.2,48.2,30.81,SW,229,7.0,8.0,62,0.00,PR,BKN,0.00,Misterhouse,2013-03-31 16:20:00,
2013-03-31 09:25:00,61.7,50.0,30.81,South,191,9.0,9.0,64,0.00,PR,BKN,0.00,Misterhouse,2013-03-31 16:25:00,
2013-03-31 09:30:00,61.7,50.0,30.81,South,176,6.0,6.0,63,0.00,PR,BKN,0.00,Misterhouse,2013-03-31 16:30:00,
2013-03-31 09:35:00,61.0,46.4,30.81,South,187,8.0,8.0,59,0.00,PR,BKN,0.00,Misterhouse,2013-03-31 16:35:00,
2013-03-31 09:40:00,60.8,46.4,30.81,WSW,254,8.0,8.0,58,0.00,PR,BKN,0.00,Misterhouse,2013-03-31 16:40:00,
2013-03-31 09:45:00,61.0,46.4,30.81,SW,222,7.0,8.0,60,0.00,PR,BKN,0.00,Misterhouse,2013-03-31 16:45:00,
2013-03-31 09:50:00,60.8,46.4,30.81,SW,217,7.0,7.0,58,0.00,PR,BKN,0.00,Misterhouse,2013-03-31 16:50:00,
2013-03-31 09:55:00,61.3,48.2,30.81,SSW,195,6.0,6.0,63,0.00,PR,BKN,0.00,Misterhouse,2013-03-31 16:55:00,
2013-03-31 10:00:00,61.7,50.0,30.81,SSW,208,5.0,6.0,65,0.00,PR,BKN,0.00,Misterhouse,2013-03-31 17:00:00,
2013-03-31 10:10:00,62.4,51.8,30.81,WNW,294,6.0,7.0,68,0.00,PR,BKN,0.00,Misterhouse,2013-03-31 17:10:00,
2013-03-31 10:15:00,62.2,51.8,30.81,SW,223,7.0,9.0,68,0.00,PR,BKN,0.00,Misterhouse,2013-03-31 17:15:00,
2013-03-31 10:20:00,63.0,51.8,30.81,West,269,6.0,7.0,69,0.00,PR,BKN,0.00,Misterhouse,2013-03-31 17:20:00,
2013-03-31 10:25:00,63.5,55.4,30.81,SW,232,6.0,6.0,71,0.00,PR,BKN,0.00,Misterhouse,2013-03-31 17:25:00,
2013-03-31 10:30:00,63.7,55.4,30.81,SW,233,6.0,6.0,71,0.00,PR,BKN,0.00,Misterhouse,2013-03-31 17:30:00,
2013-03-31 10:35:00,64.4,53.6,30.81,WSW,258,6.0,8.0,69,0.00,PR,BKN,0.00,Misterhouse,2013-03-31 17:35:00,
2013-03-31 10:40:00,62.6,50.0,30.81,WSW,240,5.0,6.0,62,0.00,PR,BKN,0.00,Misterhouse,2013-03-31 17:40:00,
2013-03-31 10:50:00,58.5,42.8,30.81,WSW,245,6.0,6.0,54,0.00,PR,BKN,0.00,Misterhouse,2013-03-31 17:50:00,
2013-03-31 10:55:00,58.3,39.2,30.81,WSW,256,7.0,8.0,49,0.00,PR,BKN,0.00,Misterhouse,2013-03-31 17:55:00,
2013-03-31 11:00:00,57.6,35.6,30.81,South,186,6.0,6.0,45,0.00,PR,BKN,0.00,Misterhouse,2013-03-31 18:00:00,
2013-03-31 11:10:00,57.4,37.4,30.81,WSW,241,5.0,6.0,47,0.00,PR,BKN,0.00,Misterhouse,2013-03-31 18:10:00,
2013-03-31 11:15:00,57.6,33.8,30.81,West,265,5.0,8.0,42,0.00,PR,BKN,0.00,Misterhouse,2013-03-31 18:15:00,
2013-03-31 11:25:00,57.6,32.0,30.81,SSW,199,8.0,11.0,36,0.00,PR,BKN,0.00,Misterhouse,2013-03-31 18:25:00,
2013-03-31 11:30:00,56.8,32.0,30.81,WSW,251,8.0,8.0,36,0.00,PR,BKN,0.00,Misterhouse,2013-03-31 18:30:00,
2013-03-31 11:35:00,56.8,32.0,30.81,South,186,8.0,12.0,37,0.00,PR,BKN,0.00,Misterhouse,2013-03-31 18:35:00,
2013-03-31 11:45:00,56.7,32.0,30.81,SSW,209,8.0,8.0,38,0.00,PR,BKN,0.00,Misterhouse,2013-03-31 18:45:00,
2013-03-31 11:50:00,56.7,32.0,30.81,West,271,8.0,8.0,38,0.00,PR,BKN,0.00,Misterhouse,2013-03-31 18:50:00,
2013-03-31 11:55:00,56.8,32.0,30.81,South,183,9.0,9.0,38,0.00,PR,BKN,0.00,Misterhouse,2013-03-31 18:55:00,
2013-03-31 12:00:00,57.0,33.8,30.81,South,183,8.0,12.0,42,0.00,PR,BKN,0.00,Misterhouse,2013-03-31 19:00:00,
2013-03-31 12:05:00,57.2,33.8,30.81,SSW,208,8.0,10.0,41,0.00,PR,BKN,0.00,Misterhouse,2013-03-31 19:05:00,
2013-03-31 12:15:00,57.0,33.8,30.81,South,170,10.0,10.0,40,0.00,PR,BKN,0.00,Misterhouse,2013-03-31 19:15:00,
2013-03-31 12:20:00,57.2,33.8,30.81,West,265,5.0,8.0,41,0.00,PR,BKN,0.00,Misterhouse,2013-03-31 19:20:00,
2013-03-31 12:25:00,57.2,33.8,30.81,SW,226,6.0,6.0,41,0.00,PR,BKN,0.00,Misterhouse,2013-03-31 19:25:00,
2013-03-31 12:30:00,57.2,33.8,30.81,SSE,168,8.0,13.0,42,0.00,PR,BKN,0.00,Misterhouse,2013-03-31 19:30:00,
2013-03-31 12:40:00,57.0,37.4,30.81,SSW,196,8.0,8.0,46,0.00,PR,BKN,0.00,Misterhouse,2013-03-31 19:40:00,
2013-03-31 12:45:00,57.0,37.4,30.81,SSW,198,7.0,8.0,49,0.00,PR,BKN,0.00,Misterhouse,2013-03-31 19:45:00,
2013-03-31 12:55:00,57.9,41.0,30.81,West,269,5.0,5.0,55,0.00,PR,BKN,0.00,Misterhouse,2013-03-31 19:55:00,
2013-03-31 13:00:00,58.1,44.6,30.81,South,186,4.0,4.0,59,0.00,PR,BKN,0.00,Misterhouse,2013-03-31 20:00:00,
2013-03-31 13:10:00,58.3,46.4,30.81,WSW,250,5.0,5.0,64,0.00,PR,BKN,0.00,Misterhouse,2013-03-31 20:10:00,
2013-03-31 13:20:00,59.4,50.0,30.81,West,262,6.0,6.0,70,0.00,PR,BKN,0.00,Misterhouse,2013-03-31 20:20:00,
2013-03-31 13:25:00,59.5,50.0,30.78,SW,236,8.0,8.0,70,0.00,PR,BKN,0.00,Misterhouse,2013-03-31 20:25:00,
2013-03-31 13:30:00,60.1,51.8,30.78,WSW,251,6.0,8.0,73,0.00,PR,BKN,0.00,Misterhouse,2013-03-31 20:30:00,
2013-03-31 13:35:00,61.0,51.8,30.78,SW,217,8.0,8.0,74,0.00,PR,BKN,0.00,Misterhouse,2013-03-31 20:35:00,
2013-03-31 13:45:00,67.3,60.8,30.78,South,171,4.0,4.0,78,0.00,PR,BKN,0.00,Misterhouse,2013-03-31 20:45:00,
2013-03-31 13:50:00,68.2,60.8,30.78,SW,214,5.0,7.0,80,0.00,PR,BKN,0.00,Misterhouse,2013-03-31 20:50:00,
2013-03-31 13:55:00,68.0,60.8,30.78,SSW,204,6.0,6.0,79,0.00,PR,BKN,0.00,Misterhouse,2013-03-31 20:55:00,
2013-03-31 14:00:00,69.1,64.4,30.78,WSW,250,8.0,8.0,81,0.00,PR,BKN,0.00,Misterhouse,2013-03-31 21:00:00,
2013-03-31 14:10:00,68.7,60.8,30.78,South,171,6.0,6.0,80,0.00,PR,BKN,0.00,Misterhouse,2013-03-31 21:10:00,
2013-03-31 14:15:00,69.8,64.4,30.78,WSW,253,5.0,7.0,82,0.00,PR,BKN,0.00,Misterhouse,2013-03-31 21:15:00,
2013-03-31 14:20:00,69.4,64.4,30.78,SSW,197,6.0,6.0,82,0.00,PR,BKN,0.00,Misterhouse,2013-03-31 21:20:00,
2013-03-31 14:25:00,69.4,64.4,30.78,WNW,286,7.0,7.0,83,0.00,PR,BKN,0.00,Misterhouse,2013-03-31 21:25:00,
2013-03-31 14:30:00,68.9,64.4,30.78,ESE,122,9.0,9.0,81,0.00,PR,BKN,0.00,Misterhouse,2013-03-31 21:30:00,
2013-03-31 14:35:00,68.9,64.4,30.78,South,184,3.0,8.0,81,0.00,PR,BKN,0.00,Misterhouse,2013-03-31 21:35:00,
2013-03-31 14:40:00,68.4,60.8,30.78,SSW,200,4.0,10.0,79,0.00,PR,BKN,0.00,Misterhouse,2013-03-31 21:40:00,
2013-03-31 14:45:00,68.4,60.8,30.78,SSW,195,4.0,4.0,79,0.00,PR,BKN,0.00,Misterhouse,2013-03-31 21:45:00,
2013-03-31 14:50:00,67.8,60.8,30.78,SSW,212,7.0,8.0,77,0.00,PR,BKN,0.00,Misterhouse,2013-03-31 21:50:00,
2013-03-31 15:00:00,67.1,59.0,30.75,SSE,155,4.0,4.0,75,0.00,PR,BKN,0.00,Misterhouse,2013-03-31 22:00:00,
2013-03-31 15:10:00,66.9,57.2,30.78,SSW,210,5.0,5.0,73,0.00,PR,BKN,0.00,Misterhouse,2013-03-31 22:10:00,
2013-03-31 15:15:00,66.9,57.2,30.78,SE,141,5.0,6.0,74,0.00,PR,BKN,0.00,Misterhouse,2013-03-31 22:15:00,
2013-03-31 15:20:00,67.5,60.8,30.78,SSE,161,6.0,6.0,77,0.00,PR,BKN,0.00,Misterhouse,2013-03-31 22:20:00,
2013-03-31 15:25:00,67.8,60.8,30.75,WSW,248,6.0,6.0,79,0.00,PR,BKN,0.00,Misterhouse,2013-03-31 22:25:00,
2013-03-31 15:30:00,68.2,60.8,30.75,SSW,198,4.0,15.0,79,0.00,PR,BKN,0.00,Misterhouse,2013-03-31 22:30:00,
2013-03-31 15:35:00,68.0,60.8,30.75,SSE,156,11.0,11.0,79,0.00,PR,BKN,0.00,Misterhouse,2013-03-31 22:35:00,
2013-03-31 15:40:00,67.8,60.8,30.75,SSW,208,6.0,6.0,77,0.00,PR,BKN,0.00,Misterhouse,2013-03-31 22:40:00,
2013-03-31 15:45:00,67.3,59.0,30.75,South,189,15.0,15.0,75,0.00,PR,BKN,0.00,Misterhouse,2013-03-31 22:45:00,
2013-03-31 15:50:00,66.4,57.2,30.75,South,170,11.0,15.0,72,0.00,PR,BKN,0.00,Misterhouse,2013-03-31 22:50:00,
2013-03-31 15:55:00,65.8,57.2,30.75,South,182,8.0,9.0,71,0.00,PR,BKN,0.00,Misterhouse,2013-03-31 22:55:00,
2013-03-31 16:00:00,65.3,55.4,30.75,SSE,165,8.0,8.0,69,0.00,PR,BKN,0.00,Misterhouse,2013-03-31 23:00:00,
2013-03-31 16:10:00,65.1,53.6,30.75,SSE,148,9.0,15.0,69,0.00,PR,BKN,0.00,Misterhouse,2013-03-31 23:10:00,
2013-03-31 16:15:00,65.3,55.4,30.75,SSW,200,7.0,7.0,70,0.00,PR,BKN,0.00,Misterhouse,2013-03-31 23:15:00,
2013-03-31 16:20:00,65.5,57.2,30.75,South,191,7.0,7.0,71,0.00,PR,BKN,0.00,Misterhouse,2013-03-31 23:20:00,
2013-03-31 16:25:00,65.8,57.2,30.75,South,177,10.0,10.0,72,0.00,PR,BKN,0.00,Misterhouse,2013-03-31 23:25:00,
2013-03-31 16:35:00,67.3,60.8,30.75,South,184,10.0,10.0,78,0.00,PR,BKN,0.00,Misterhouse,2013-03-31 23:35:00,
2013-03-31 16:40:00,67.6,60.8,30.75,SE,136,11.0,11.0,79,0.00,PR,BKN,0.00,Misterhouse,2013-03-31 23:40:00,
2013-03-31 16:45:00,68.2,60.8,30.75,SSW,194,9.0,11.0,80,0.00,PR,BKN,0.00,Misterhouse,2013-03-31 23:45:00,
2013-03-31 16:50:00,68.4,60.8,30.75,South,178,7.0,7.0,79,0.00,PR,BKN,0.00,Misterhouse,2013-03-31 23:50:00,
2013-03-31 17:00:00,68.4,60.8,30.75,South,190,9.0,9.0,79,0.00,PR,BKN,0.00,Misterhouse,2013-04-01 00:00:00,
2013-03-31 17:10:00,69.1,64.4,30.75,SSW,194,9.0,9.0,83,0.00,PR,BKN,0.00,Misterhouse,2013-04-01 00:10:00,
2013-03-31 17:15:00,69.4,64.4,30.75,SE,129,9.0,9.0,85,0.00,PR,BKN,0.00,Misterhouse,2013-04-01 00:15:00,
2013-03-31 17:25:00,70.3,66.2,30.75,SSE,155,8.0,10.0,87,0.00,PR,BKN,0.00,Misterhouse,2013-04-01 00:25:00,
2013-03-31 17:35:00,71.1,68.0,30.75,South,171,8.0,8.0,89,0.00,PR,BKN,0.00,Misterhouse,2013-04-01 00:35:00,
2013-03-31 17:40:00,71.2,68.0,30.75,SSW,210,8.0,8.0,90,0.00,PR,BKN,0.00,Misterhouse,2013-04-01 00:40:00,
2013-03-31 17:45:00,71.4,68.0,30.75,South,171,6.0,6.0,90,0.00,PR,BKN,0.00,Misterhouse,2013-04-01 00:45:00,
2013-03-31 17:55:00,72.0,68.0,30.75,West,259,7.0,10.0,91,0.00,PR,BKN,0.00,Misterhouse,2013-04-01 00:55:00,
2013-03-31 18:00:00,72.0,69.8,30.75,SW,216,8.0,11.0,92,0.00,PR,BKN,0.00,Misterhouse,2013-04-01 01:00:00,
2013-03-31 18:10:00,72.1,69.8,30.75,SW,231,6.0,8.0,93,0.00,PR,BKN,0.00,Misterhouse,2013-04-01 01:10:00,
2013-03-31 18:15:00,72.1,69.8,30.75,SW,222,7.0,7.0,93,0.00,PR,BKN,0.00,Misterhouse,2013-04-01 01:15:00,
2013-03-31 18:20:00,72.3,69.8,30.75,ESE,119,6.0,6.0,94,0.00,PR,BKN,0.00,Misterhouse,2013-04-01 01:20:00,
2013-03-31 18:25:00,72.3,69.8,30.75,South,173,5.0,11.0,95,0.00,PR,BKN,0.00,Misterhouse,2013-04-01 01:25:00,
2013-03-31 18:30:00,72.5,71.6,30.75,South,180,7.0,7.0,95,0.00,PR,BKN,0.00,Misterhouse,2013-04-01 01:30:00,
2013-03-31 18:40:00,72.5,71.6,30.75,West,266,8.0,11.0,96,0.00,PR,BKN,0.00,Misterhouse,2013-04-01 01:40:00,
2013-03-31 18:50:00,72.1,69.8,30.75,South,191,8.0,8.0,95,0.00,PR,BKN,0.00,Misterhouse,2013-04-01 01:50:00,
2013-03-31 18:55:00,72.0,69.8,30.75,SSE,156,8.0,10.0,95,0.00,PR,BKN,0.00,Misterhouse,2013-04-01 01:55:00,
2013-03-31 19:00:00,71.8,69.8,30.75,SE,143,11.0,13.0,94,0.00,PR,BKN,0.00,Misterhouse,2013-04-01 02:00:00,
2013-03-31 19:10:00,71.8,69.8,30.75,SSW,209,9.0,11.0,94,0.00,PR,BKN,0.00,Misterhouse,2013-04-01 02:10:00,
2013-03-31 19:15:00,72.1,69.8,30.75,West,272,5.0,8.0,94,0.00,PR,BKN,0.00,Misterhouse,2013-04-01 02:15:00,
2013-03-31 19:20:00,72.1,69.8,30.75,SSW,212,5.0,6.0,95,0.00,PR,BKN,0.00,Misterhouse,2013-04-01 02:20:00,
2013-03-31 19:25:00,72.1,69.8,30.75,SSE,162,4.0,0.0,95,0.00,PR,BKN,0.00,Misterhouse,2013-04-01 02:25:00,
2013-03-31 19:30:00,72.3,69.8,30.75,WSW,237,4.0,6.0,96,0.00,PR,BKN,0.00,Misterhouse,2013-04-01 02:30:00,
2013-03-31 19:35:00,72.3,71.6,30.75,SSW,210,5.0,11.0,97,0.00,PR,BKN,0.00,Misterhouse,2013-04-01 02:35:00,
2013-03-31 19:40:00,72.3,71.6,30.75,South,177,4.0,6.0,97,0.00,PR,BKN,0.00,Misterhouse,2013-04-01 02:40:00,
2013-03-31 19:45:00,72.5,73.4,30.75,South,178,8.0,9.0,97,0.00,PR,BKN,0.00,Misterhouse,2013-04-01 02:45:00,
2013-03-31 19:55:00,72.5,73.4,30.75,SSE,156,6.0,6.0,98,0.00,PR,BKN,0.00,Misterhouse,2013-04-01 02:55:00,
2013-03-31 20:00:00,72.5,73.4,30.75,SSW,211,9.0,9.0,98,0.00,PR,BKN,0.00,Misterhouse,2013-04-01 03:00:00,
2013-03-31 20:10:00,72.5,73.4,30.75,SSW,203,6.0,6.0,97,0.00,PR,BKN,0.00,Misterhouse,2013-04-01 03:10:00,
2013-03-31 20:15:00,72.3,71.6,30.75,SSW,193,8.0,9.0,97,0.00,PR,BKN,0.00,Misterhouse,2013-04-01 03:15:00,
2013-03-31 20:20:00,72.3,71.6,30.75,South,177,7.0,8.0,97,0.00,PR,BKN,0.00,Misterhouse,2013-04-01 03:20:00,
2013-03-31 20:25:00,72.1,71.6,30.75,South,181,7.0,9.0,97,0.00,PR,BKN,0.00,Misterhouse,2013-04-01 03:25:00,
2013-03-31 20:30:00,72.1,71.6,30.75,SW,236,3.0,4.0,97,0.00,PR,BKN,0.00,Misterhouse,2013-04-01 03:30:00,
2013-03-31 20:35:00,72.1,71.6,30.75,WSW,246,6.0,11.0,97,0.00,PR,BKN,0.00,Misterhouse,2013-04-01 03:35:00,
2013-03-31 20:40:00,72.1,71.6,30.78,SW,232,7.0,8.0,97,0.00,PR,BKN,0.00,Misterhouse,2013-04-01 03:40:00,
2013-03-31 20:45:00,72.0,71.6,30.78,SW,217,7.0,7.0,97,0.00,PR,BKN,0.00,Misterhouse,2013-04-01 03:45:00,
2013-03-31 20:50:00,71.8,71.6,30.78,SSE,166,8.0,8.0,97,0.00,PR,BKN,0.00,Misterhouse,2013-04-01 03:50:00,
2013-03-31 20:55:00,71.8,71.6,30.78,SW,218,8.0,15.0,97,0.00,PR,BKN,0.00,Misterhouse,2013-04-01 03:55:00,
2013-03-31 21:05:00,71.8,71.6,30.78,SW,222,4.0,4.0,97,0.00,PR,BKN,0.00,Misterhouse,2013-04-01 04:05:00,
2013-03-31 21:10:00,71.8,71.6,30.78,WSW,254,6.0,8.0,97,0.00,PR,BKN,0.00,Misterhouse,2013-04-01 04:10:00,
2013-03-31 21:20:00,71.6,71.6,30.78,SSW,201,5.0,8.0,97,0.00,PR,BKN,0.00,Misterhouse,2013-04-01 04:20:00,
2013-03-31 21:25:00,71.6,71.6,30.78,SSW,207,8.0,8.0,97,0.00,PR,BKN,0.00,Misterhouse,2013-04-01 04:25:00,
2013-03-31 21:30:00,71.4,71.6,30.78,SSW,199,5.0,5.0,98,0.00,PR,BKN,0.00,Misterhouse,2013-04-01 04:30:00,
2013-03-31 21:35:00,71.4,71.6,30.78,SSE,166,5.0,8.0,97,0.00,PR,BKN,0.00,Misterhouse,2013-04-01 04:35:00,
2013-03-31 21:40:00,71.6,71.6,30.78,SW,222,4.0,5.0,97,0.00,PR,BKN,0.00,Misterhouse,2013-04-01 04:40:00,
2013-03-31 21:45:00,71.4,71.6,30.78,SSW,203,5.0,10.0,97,0.00,PR,BKN,0.00,Misterhouse,2013-04-01 04:45:00,
2013-03-31 21:50:00,71.4,71.6,30.78,SW,236,7.0,7.0,97,0.00,PR,BKN,0.00,Misterhouse,2013-04-01 04:50:00,
2013-03-31 22:00:00,71.4,71.6,30.78,WSW,244,6.0,6.0,98,0.00,PR,BKN,0.00,Misterhouse,2013-04-01 05:00:00,
2013-03-31 22:10:00,71.1,71.6,30.78,SW,227,4.0,4.0,98,0.00,PR,BKN,0.00,Misterhouse,2013-04-01 05:10:00,
2013-03-31 22:15:00,71.1,71.6,30.78,SSW,198,6.0,6.0,98,0.00,PR,BKN,0.00,Misterhouse,2013-04-01 05:15:00,
2013-03-31 22:25:00,70.9,71.6,30.78,South,188,5.0,5.0,97,0.00,PR,BKN,0.00,Misterhouse,2013-04-01 05:25:00,
2013-03-31 22:30:00,70.9,71.6,30.78,SSW,196,7.0,11.0,97,0.00,PR,BKN,0.00,Misterhouse,2013-04-01 05:30:00,
2013-03-31 22:35:00,70.9,71.6,30.78,SSW,203,10.0,10.0,97,0.00,PR,BKN,0.00,Misterhouse,2013-04-01 05:35:00,
2013-03-31 22:40:00,70.7,71.6,30.78,SW,217,10.0,10.0,98,0.00,PR,BKN,0.00,Misterhouse,2013-04-01 05:40:00,
2013-03-31 22:50:00,70.7,71.6,30.78,South,184,10.0,10.0,97,0.00,PR,BKN,0.00,Misterhouse,2013-04-01 05:50:00,
2013-03-31 22:55:00,70.3,69.8,30.78,South,188,10.0,10.0,97,0.00,PR,BKN,0.00,Misterhouse,2013-04-01 05:55:00,
2013-03-31 23:00:00,70.0,68.0,30.78,SW,219,9.0,9.0,96,0.00,PR,BKN,0.00,Misterhouse,2013-04-01 06:00:00,
2013-03-31 23:05:00,69.4,68.0,30.78,SSW,200,10.0,13.0,96,0.00,PR,BKN,0.00,Misterhouse,2013-04-01 06:05:00,
2013-03-31 23:10:00,68.7,66.2,30.78,South,191,12.0,12.0,94,0.00,PR,BKN,0.00,Misterhouse,2013-04-01 06:10:00,
2013-03-31 23:15:00,67.6,64.4,30.78,SW,220,11.0,15.0,91,0.00,PR,BKN,0.00,Misterhouse,2013-04-01 06:15:00,
2013-03-31 23:20:00,66.6,62.6,30.78,SSW,213,9.0,9.0,89,0.00,PR,BKN,0.00,Misterhouse,2013-04-01 06:20:00,
2013-03-31 23:25:00,66.0,62.6,30.78,SSW,195,10.0,10.0,88,0.00,PR,BKN,0.00,Misterhouse,2013-04-01 06:25:00,
2013-03-31 23:30:00,65.7,62.6,30.78,South,191,10.0,13.0,86,0.00,PR,BKN,0.00,Misterhouse,2013-04-01 06:30:00,
2013-03-31 23:35:00,65.5,62.6,30.78,South,177,10.0,10.0,86,0.00,PR,BKN,0.00,Misterhouse,2013-04-01 06:35:00,
2013-03-31 23:40:00,65.5,62.6,30.78,SSW,192,9.0,15.0,87,0.00,PR,BKN,0.00,Misterhouse,2013-04-01 06:40:00,
2013-03-31 23:45:00,65.7,62.6,30.78,SSW,213,12.0,12.0,88,0.00,PR,BKN,0.00,Misterhouse,2013-04-01 06:45:00,
2013-03-31 23:50:00,66.2,62.6,30.78,South,188,8.0,8.0,90,0.00,PR,BKN,0.00,Misterhouse,2013-04-01 06:50:00,
2013-03-31 23:55:00,66.9,64.4,30.78,SSW,196,11.0,11.0,91,0.00,PR,BKN,0.00,Misterhouse,2013-04-01 06:55:00,